sensor_id;sensor_type;location;lat;lon;timestamp;pressure;altitude;pressure_sealevel;temperature;humidity
57594;BME280;43423;46.510;6.686;2023-02-03T00:00:27;98060.06;;;4.76;65.39
57594;BME280;43423;46.510;6.686;2023-02-03T00:03:14;98056.25;;;4.67;65.51
57594;BME280;43423;46.510;6.686;2023-02-03T00:05:40;98056.53;;;4.80;65.86
57594;BME280;43423;46.510;6.686;2023-02-03T00:08:07;98060.50;;;4.64;66.15
57594;BME280;43423;46.510;6.686;2023-02-03T00:10:34;98060.88;;;4.70;66.33
57594;BME280;43423;46.510;6.686;2023-02-03T00:13:01;98060.50;;;4.64;66.85
57594;BME280;43423;46.510;6.686;2023-02-03T00:15:27;98041.53;;;4.54;66.79
57594;BME280;43423;46.510;6.686;2023-02-03T00:17:53;98058.66;;;4.54;67.02
57594;BME280;43423;46.510;6.686;2023-02-03T00:20:19;98064.00;;;4.65;66.20
57594;BME280;43423;46.510;6.686;2023-02-03T00:22:44;98067.06;;;4.78;67.28
57594;BME280;43423;46.510;6.686;2023-02-03T00:25:10;98056.56;;;4.72;66.26
57594;BME280;43423;46.510;6.686;2023-02-03T00:27:35;98061.59;;;4.78;66.92
57594;BME280;43423;46.510;6.686;2023-02-03T00:30:01;98057.28;;;4.84;66.43
57594;BME280;43423;46.510;6.686;2023-02-03T00:32:26;98063.41;;;4.95;66.40
57594;BME280;43423;46.510;6.686;2023-02-03T00:34:52;98058.81;;;4.85;66.95
57594;BME280;43423;46.510;6.686;2023-02-03T00:37:17;98061.50;;;4.88;66.82
57594;BME280;43423;46.510;6.686;2023-02-03T00:39:43;98058.38;;;4.93;66.88
57594;BME280;43423;46.510;6.686;2023-02-03T00:42:08;98059.91;;;4.98;66.72
57594;BME280;43423;46.510;6.686;2023-02-03T00:44:34;98058.81;;;4.85;66.26
57594;BME280;43423;46.510;6.686;2023-02-03T00:47:00;98054.06;;;4.96;66.26
57594;BME280;43423;46.510;6.686;2023-02-03T00:49:26;98049.84;;;4.88;66.58
57594;BME280;43423;46.510;6.686;2023-02-03T00:51:51;98050.97;;;4.94;66.76
57594;BME280;43423;46.510;6.686;2023-02-03T00:54:17;98049.38;;;5.00;67.20
57594;BME280;43423;46.510;6.686;2023-02-03T00:56:43;98049.72;;;5.02;67.72
57594;BME280;43423;46.510;6.686;2023-02-03T00:59:09;98047.34;;;5.08;67.05
57594;BME280;43423;46.510;6.686;2023-02-03T01:01:35;98039.16;;;5.08;66.59
57594;BME280;43423;46.510;6.686;2023-02-03T01:04:01;98045.03;;;5.02;67.51
57594;BME280;43423;46.510;6.686;2023-02-03T01:06:26;98047.75;;;5.06;67.22
57594;BME280;43423;46.510;6.686;2023-02-03T01:08:53;98049.31;;;5.07;67.11
57594;BME280;43423;46.510;6.686;2023-02-03T01:11:21;98057.47;;;5.07;66.71
57594;BME280;43423;46.510;6.686;2023-02-03T01:13:47;98060.56;;;5.09;66.73
57594;BME280;43423;46.510;6.686;2023-02-03T01:16:16;98056.31;;;5.08;66.57
57594;BME280;43423;46.510;6.686;2023-02-03T01:18:43;98047.34;;;5.08;66.94
57594;BME280;43423;46.510;6.686;2023-02-03T01:21:12;98059.03;;;5.08;66.35
57594;BME280;43423;46.510;6.686;2023-02-03T01:23:38;98054.75;;;5.07;67.48
57594;BME280;43423;46.510;6.686;2023-02-03T01:26:06;98056.38;;;4.97;68.38
57594;BME280;43423;46.510;6.686;2023-02-03T01:28:32;98066.78;;;5.10;67.62
57594;BME280;43423;46.510;6.686;2023-02-03T01:31:08;98066.03;;;5.09;67.76
57594;BME280;43423;46.510;6.686;2023-02-03T01:33:34;98072.66;;;5.08;67.56
57594;BME280;43423;46.510;6.686;2023-02-03T01:36:00;98072.66;;;5.08;67.22
57594;BME280;43423;46.510;6.686;2023-02-03T01:38:25;98076.13;;;5.12;67.12
57594;BME280;43423;46.510;6.686;2023-02-03T01:40:51;98083.94;;;5.10;67.89
57594;BME280;43423;46.510;6.686;2023-02-03T01:43:30;98088.56;;;5.13;67.39
57594;BME280;43423;46.510;6.686;2023-02-03T01:45:58;98091.75;;;5.08;67.81
57594;BME280;43423;46.510;6.686;2023-02-03T01:48:34;98094.06;;;5.10;67.88
57594;BME280;43423;46.510;6.686;2023-02-03T01:51:01;98091.28;;;5.13;67.80
57594;BME280;43423;46.510;6.686;2023-02-03T01:53:28;98104.59;;;5.08;68.26
57594;BME280;43423;46.510;6.686;2023-02-03T01:55:53;98103.38;;;5.12;67.87
57594;BME280;43423;46.510;6.686;2023-02-03T01:58:23;98093.69;;;5.08;67.71
57594;BME280;43423;46.510;6.686;2023-02-03T02:00:51;98103.06;;;5.03;68.24
57594;BME280;43423;46.510;6.686;2023-02-03T02:03:22;98106.97;;;5.02;68.04
57594;BME280;43423;46.510;6.686;2023-02-03T02:05:52;98098.03;;;5.01;68.78
57594;BME280;43423;46.510;6.686;2023-02-03T02:08:21;98091.75;;;5.08;68.29
57594;BME280;43423;46.510;6.686;2023-02-03T02:10:48;98087.84;;;5.09;68.67
57594;BME280;43423;46.510;6.686;2023-02-03T02:13:15;98087.88;;;5.02;68.83
57594;BME280;43423;46.510;6.686;2023-02-03T02:16:05;98083.63;;;5.01;68.79
57594;BME280;43423;46.510;6.686;2023-02-03T02:35:35;98093.41;;;4.95;70.56
57594;BME280;43423;46.510;6.686;2023-02-03T02:38:04;98088.03;;;4.81;71.20
57594;BME280;43423;46.510;6.686;2023-02-03T02:40:49;98090.94;;;4.59;71.77
57594;BME280;43423;46.510;6.686;2023-02-03T02:46:07;98093.16;;;4.71;70.17
57594;BME280;43423;46.510;6.686;2023-02-03T02:48:42;98092.72;;;4.80;70.47
57594;BME280;43423;46.510;6.686;2023-02-03T02:51:10;98091.94;;;4.83;70.89
57594;BME280;43423;46.510;6.686;2023-02-03T02:53:42;98095.13;;;4.71;71.43
57594;BME280;43423;46.510;6.686;2023-02-03T02:56:09;98097.47;;;4.69;71.70
57594;BME280;43423;46.510;6.686;2023-02-03T02:58:39;98082.72;;;4.66;72.22
57594;BME280;43423;46.510;6.686;2023-02-03T03:01:09;98082.69;;;4.70;72.36
57594;BME280;43423;46.510;6.686;2023-02-03T03:03:35;98080.72;;;4.70;72.22
57594;BME280;43423;46.510;6.686;2023-02-03T03:06:08;98081.50;;;4.71;72.05
57594;BME280;43423;46.510;6.686;2023-02-03T03:08:41;98076.47;;;4.66;72.29
57594;BME280;43423;46.510;6.686;2023-02-03T03:11:10;98075.38;;;4.56;72.30
57594;BME280;43423;46.510;6.686;2023-02-03T03:13:41;98069.91;;;4.56;71.99
57594;BME280;43423;46.510;6.686;2023-02-03T03:16:09;98083.16;;;4.54;71.90
57594;BME280;43423;46.510;6.686;2023-02-03T03:18:40;98083.84;;;4.65;71.69
57594;BME280;43423;46.510;6.686;2023-02-03T03:21:11;98079.53;;;4.71;71.62
57594;BME280;43423;46.510;6.686;2023-02-03T03:23:39;98083.41;;;4.78;71.95
57594;BME280;43423;46.510;6.686;2023-02-03T03:26:21;98075.22;;;4.78;71.72
57594;BME280;43423;46.510;6.686;2023-02-03T03:28:57;98081.41;;;4.82;71.79
57594;BME280;43423;46.510;6.686;2023-02-03T03:31:25;98074.91;;;4.68;72.99
57594;BME280;43423;46.510;6.686;2023-02-03T03:33:51;98074.19;;;4.61;73.29
57594;BME280;43423;46.510;6.686;2023-02-03T03:36:23;98080.84;;;4.53;73.16
57594;BME280;43423;46.510;6.686;2023-02-03T03:39:14;98082.31;;;4.68;72.58
57594;BME280;43423;46.510;6.686;2023-02-03T03:41:57;98076.81;;;4.71;72.38
57594;BME280;43423;46.510;6.686;2023-02-03T03:44:29;98081.09;;;4.76;72.73
57594;BME280;43423;46.510;6.686;2023-02-03T03:47:05;98076.78;;;4.79;72.53
57594;BME280;43423;46.510;6.686;2023-02-03T03:49:34;98076.09;;;4.64;72.86
57594;BME280;43423;46.510;6.686;2023-02-03T03:52:04;98073.41;;;4.60;73.05
57594;BME280;43423;46.510;6.686;2023-02-03T03:54:31;98070.63;;;4.64;72.32
57594;BME280;43423;46.510;6.686;2023-02-03T03:57:02;98070.19;;;4.72;71.96
57594;BME280;43423;46.510;6.686;2023-02-03T03:59:31;98060.06;;;4.76;71.74
57594;BME280;43423;46.510;6.686;2023-02-03T04:02:00;98055.00;;;4.75;71.74
57594;BME280;43423;46.510;6.686;2023-02-03T04:04:30;98057.44;;;4.62;71.29
57594;BME280;43423;46.510;6.686;2023-02-03T04:06:56;98061.69;;;4.63;71.12
57594;BME280;43423;46.510;6.686;2023-02-03T04:09:22;98060.50;;;4.68;71.24
57594;BME280;43423;46.510;6.686;2023-02-03T04:11:48;98048.78;;;4.71;71.17
57594;BME280;43423;46.510;6.686;2023-02-03T04:14:26;98044.13;;;4.71;71.33
57594;BME280;43423;46.510;6.686;2023-02-03T04:16:51;98046.44;;;4.73;71.07
57594;BME280;43423;46.510;6.686;2023-02-03T04:19:17;98041.88;;;4.59;69.83
57594;BME280;43423;46.510;6.686;2023-02-03T04:21:42;98038.69;;;4.71;69.49
57594;BME280;43423;46.510;6.686;2023-02-03T04:24:08;98042.16;;;4.72;70.60
57594;BME280;43423;46.510;6.686;2023-02-03T04:26:33;98039.50;;;4.65;69.93
57594;BME280;43423;46.510;6.686;2023-02-03T04:28:59;98041.50;;;4.57;68.68
57594;BME280;43423;46.510;6.686;2023-02-03T04:31:24;98041.84;;;4.63;68.57
57594;BME280;43423;46.510;6.686;2023-02-03T04:33:50;98043.03;;;4.62;68.63
57594;BME280;43423;46.510;6.686;2023-02-03T04:36:16;98037.66;;;4.51;68.94
57594;BME280;43423;46.510;6.686;2023-02-03T04:38:41;98027.09;;;4.60;68.91
57594;BME280;43423;46.510;6.686;2023-02-03T04:41:07;98020.09;;;4.59;69.08
57594;BME280;43423;46.510;6.686;2023-02-03T04:43:32;98018.47;;;4.65;69.22
57594;BME280;43423;46.510;6.686;2023-02-03T04:45:58;98015.00;;;4.61;68.95
57594;BME280;43423;46.510;6.686;2023-02-03T04:48:24;98014.97;;;4.65;69.42
57594;BME280;43423;46.510;6.686;2023-02-03T04:50:50;98002.63;;;4.53;69.80
57594;BME280;43423;46.510;6.686;2023-02-03T04:53:16;97990.19;;;4.52;69.65
57594;BME280;43423;46.510;6.686;2023-02-03T04:55:45;97995.63;;;4.48;69.91
57594;BME280;43423;46.510;6.686;2023-02-03T04:58:11;97991.00;;;4.42;69.88
57594;BME280;43423;46.510;6.686;2023-02-03T05:00:37;97982.53;;;4.33;69.13
57594;BME280;43423;46.510;6.686;2023-02-03T05:03:03;97994.22;;;4.30;68.54
57594;BME280;43423;46.510;6.686;2023-02-03T05:05:28;97994.19;;;4.37;68.98
57594;BME280;43423;46.510;6.686;2023-02-03T05:07:54;97992.31;;;4.27;69.37
57594;BME280;43423;46.510;6.686;2023-02-03T05:10:19;97992.31;;;4.27;68.88
57594;BME280;43423;46.510;6.686;2023-02-03T05:12:45;97996.53;;;4.31;68.37
57594;BME280;43423;46.510;6.686;2023-02-03T05:15:10;97995.03;;;4.27;68.80
57594;BME280;43423;46.510;6.686;2023-02-03T05:17:36;98007.06;;;4.26;69.00
57594;BME280;43423;46.510;6.686;2023-02-03T05:20:05;98012.91;;;4.24;68.49
57594;BME280;43423;46.510;6.686;2023-02-03T05:22:30;98014.53;;;4.14;69.17
57594;BME280;43423;46.510;6.686;2023-02-03T05:24:56;98016.09;;;4.19;68.64
57594;BME280;43423;46.510;6.686;2023-02-03T05:27:21;98009.13;;;4.11;68.86
57594;BME280;43423;46.510;6.686;2023-02-03T05:29:47;97999.38;;;4.10;68.73
57594;BME280;43423;46.510;6.686;2023-02-03T05:32:13;97990.47;;;4.02;68.30
57594;BME280;43423;46.510;6.686;2023-02-03T05:34:38;97995.16;;;4.05;69.18
57594;BME280;43423;46.510;6.686;2023-02-03T05:37:04;97990.16;;;3.97;69.04
57594;BME280;43423;46.510;6.686;2023-02-03T05:39:29;97988.97;;;3.94;68.60
57594;BME280;43423;46.510;6.686;2023-02-03T05:41:55;97987.09;;;3.84;69.24
57594;BME280;43423;46.510;6.686;2023-02-03T05:44:22;97994.84;;;3.89;68.94
57594;BME280;43423;46.510;6.686;2023-02-03T05:46:49;98001.50;;;3.81;68.81
57594;BME280;43423;46.510;6.686;2023-02-03T05:49:15;97997.22;;;3.80;68.73
57594;BME280;43423;46.510;6.686;2023-02-03T05:51:41;97994.50;;;3.76;68.57
57594;BME280;43423;46.510;6.686;2023-02-03T05:54:06;98005.41;;;3.73;68.61
57594;BME280;43423;46.510;6.686;2023-02-03T05:56:32;98015.53;;;3.69;69.53
57594;BME280;43423;46.510;6.686;2023-02-03T05:58:58;98014.00;;;3.64;69.13
57594;BME280;43423;46.510;6.686;2023-02-03T06:01:23;98015.53;;;3.61;69.93
57594;BME280;43423;46.510;6.686;2023-02-03T06:03:49;98019.03;;;3.62;70.19
57594;BME280;43423;46.510;6.686;2023-02-03T06:06:15;98021.00;;;3.54;69.87
57594;BME280;43423;46.510;6.686;2023-02-03T06:08:42;98022.19;;;3.46;70.46
57594;BME280;43423;46.510;6.686;2023-02-03T06:11:07;98028.44;;;3.43;71.12
57594;BME280;43423;46.510;6.686;2023-02-03T06:13:33;98031.94;;;3.36;70.95
57594;BME280;43423;46.510;6.686;2023-02-03T06:15:59;98029.63;;;3.35;71.25
57594;BME280;43423;46.510;6.686;2023-02-03T06:18:24;98045.94;;;3.35;71.21
57594;BME280;43423;46.510;6.686;2023-02-03T06:20:50;98047.47;;;3.36;71.33
57594;BME280;43423;46.510;6.686;2023-02-03T06:23:16;98052.91;;;3.40;70.81
57594;BME280;43423;46.510;6.686;2023-02-03T06:25:44;98058.34;;;3.43;70.21
57594;BME280;43423;46.510;6.686;2023-02-03T06:28:10;98066.13;;;3.34;70.61
57594;BME280;43423;46.510;6.686;2023-02-03T06:30:35;98066.91;;;3.27;70.58
57594;BME280;43423;46.510;6.686;2023-02-03T06:33:01;98076.22;;;3.30;70.52
57594;BME280;43423;46.510;6.686;2023-02-03T06:35:27;98079.72;;;3.23;70.17
57594;BME280;43423;46.510;6.686;2023-02-03T06:37:52;98078.56;;;3.28;70.83
57594;BME280;43423;46.510;6.686;2023-02-03T06:40:18;98067.72;;;3.24;70.03
57594;BME280;43423;46.510;6.686;2023-02-03T06:42:45;98064.59;;;3.26;70.64
57594;BME280;43423;46.510;6.686;2023-02-03T06:45:11;98058.38;;;3.07;70.97
57594;BME280;43423;46.510;6.686;2023-02-03T06:47:41;98054.53;;;3.08;70.86
57594;BME280;43423;46.510;6.686;2023-02-03T06:50:08;98050.63;;;3.10;69.94
57594;BME280;43423;46.510;6.686;2023-02-03T06:52:34;98056.81;;;3.14;70.46
57594;BME280;43423;46.510;6.686;2023-02-03T06:55:00;98070.03;;;3.12;70.43
57594;BME280;43423;46.510;6.686;2023-02-03T06:57:25;98083.63;;;3.12;70.36
57594;BME280;43423;46.510;6.686;2023-02-03T06:59:51;98078.97;;;3.12;70.33
57594;BME280;43423;46.510;6.686;2023-02-03T07:02:16;98077.03;;;3.20;69.93
57594;BME280;43423;46.510;6.686;2023-02-03T07:04:42;98073.50;;;3.37;69.65
57594;BME280;43423;46.510;6.686;2023-02-03T07:07:12;98066.88;;;3.45;68.90
57594;BME280;43423;46.510;6.686;2023-02-03T07:09:39;98066.50;;;3.36;69.34
57594;BME280;43423;46.510;6.686;2023-02-03T07:12:05;98059.53;;;3.21;70.44
57594;BME280;43423;46.510;6.686;2023-02-03T07:14:31;98062.25;;;3.21;70.33
57594;BME280;43423;46.510;6.686;2023-02-03T07:16:59;98066.16;;;3.20;70.17
57594;BME280;43423;46.510;6.686;2023-02-03T07:19:25;98056.44;;;3.19;69.92
57594;BME280;43423;46.510;6.686;2023-02-03T07:21:50;98050.59;;;3.31;69.74
57594;BME280;43423;46.510;6.686;2023-02-03T07:24:16;98042.06;;;3.29;68.70
57594;BME280;43423;46.510;6.686;2023-02-03T07:26:41;98032.75;;;3.16;69.38
57594;BME280;43423;46.510;6.686;2023-02-03T07:29:07;98040.09;;;3.36;69.25
57594;BME280;43423;46.510;6.686;2023-02-03T07:31:33;98037.34;;;3.47;69.17
57594;BME280;43423;46.510;6.686;2023-02-03T07:33:59;98041.97;;;3.61;68.73
57594;BME280;43423;46.510;6.686;2023-02-03T07:36:25;98045.78;;;3.78;67.65
57594;BME280;43423;46.510;6.686;2023-02-03T07:38:53;98030.22;;;3.85;67.04
57594;BME280;43423;46.510;6.686;2023-02-03T07:41:19;98035.59;;;4.00;66.68
57594;BME280;43423;46.510;6.686;2023-02-03T07:43:45;98055.41;;;4.11;66.96
57594;BME280;43423;46.510;6.686;2023-02-03T07:46:11;98059.97;;;4.25;66.05
57594;BME280;43423;46.510;6.686;2023-02-03T07:48:36;98064.94;;;4.40;65.92
57594;BME280;43423;46.510;6.686;2023-02-03T07:51:02;98078.47;;;4.58;66.17
57594;BME280;43423;46.510;6.686;2023-02-03T07:53:27;98084.66;;;4.62;65.82
57594;BME280;43423;46.510;6.686;2023-02-03T07:55:53;98095.03;;;4.82;65.44
57594;BME280;43423;46.510;6.686;2023-02-03T07:58:18;98101.47;;;5.09;64.62
57594;BME280;43423;46.510;6.686;2023-02-03T08:00:44;98100.28;;;5.10;64.31
57594;BME280;43423;46.510;6.686;2023-02-03T08:03:09;98093.94;;;5.24;63.71
57594;BME280;43423;46.510;6.686;2023-02-03T08:05:35;98094.84;;;5.55;62.98
57594;BME280;43423;46.510;6.686;2023-02-03T08:08:00;98086.66;;;5.51;61.38
57594;BME280;43423;46.510;6.686;2023-02-03T08:10:26;98094.78;;;5.62;61.48
57594;BME280;43423;46.510;6.686;2023-02-03T08:12:55;98094.84;;;5.55;62.27
57594;BME280;43423;46.510;6.686;2023-02-03T08:15:21;98091.28;;;5.58;62.53
57594;BME280;43423;46.510;6.686;2023-02-03T08:17:50;98092.41;;;5.64;62.52
57594;BME280;43423;46.510;6.686;2023-02-03T08:20:16;98105.97;;;5.71;62.15
57594;BME280;43423;46.510;6.686;2023-02-03T08:22:41;98093.44;;;5.77;61.93
57594;BME280;43423;46.510;6.686;2023-02-03T08:25:08;98111.25;;;5.93;61.21
57594;BME280;43423;46.510;6.686;2023-02-03T08:27:33;98117.19;;;6.18;60.23
57594;BME280;43423;46.510;6.686;2023-02-03T08:29:59;98122.94;;;6.27;60.55
57594;BME280;43423;46.510;6.686;2023-02-03T08:32:24;98111.44;;;6.39;59.03
57594;BME280;43423;46.510;6.686;2023-02-03T08:34:51;98118.72;;;6.19;59.93
57594;BME280;43423;46.510;6.686;2023-02-03T08:37:20;98118.91;;;6.05;60.00
57594;BME280;43423;46.510;6.686;2023-02-03T08:39:45;98122.94;;;6.27;59.38
57594;BME280;43423;46.510;6.686;2023-02-03T08:42:11;98134.53;;;6.35;59.09
57594;BME280;43423;46.510;6.686;2023-02-03T08:44:37;98138.81;;;6.36;58.76
57594;BME280;43423;46.510;6.686;2023-02-03T08:47:06;98135.59;;;6.44;59.02
57594;BME280;43423;46.510;6.686;2023-02-03T08:49:32;98135.69;;;6.37;59.66
57594;BME280;43423;46.510;6.686;2023-02-03T08:52:00;98127.03;;;6.42;60.06
57594;BME280;43423;46.510;6.686;2023-02-03T08:54:26;98133.38;;;6.63;59.53
57594;BME280;43423;46.510;6.686;2023-02-03T08:56:51;98136.44;;;6.38;59.30
57594;BME280;43423;46.510;6.686;2023-02-03T08:59:17;98134.56;;;6.62;59.29
57594;BME280;43423;46.510;6.686;2023-02-03T09:01:43;98139.50;;;6.43;59.75
57594;BME280;43423;46.510;6.686;2023-02-03T09:04:11;98147.13;;;6.59;59.09
57594;BME280;43423;46.510;6.686;2023-02-03T09:06:37;98158.56;;;6.47;57.98
57594;BME280;43423;46.510;6.686;2023-02-03T09:09:03;98143.09;;;6.37;57.86
57594;BME280;43423;46.510;6.686;2023-02-03T09:11:28;98138.59;;;6.54;58.14
57594;BME280;43423;46.510;6.686;2023-02-03T09:13:54;98146.78;;;6.54;57.40
57594;BME280;43423;46.510;6.686;2023-02-03T09:16:22;98144.28;;;6.66;58.04
57594;BME280;43423;46.510;6.686;2023-02-03T09:18:48;98141.72;;;6.83;57.02
57594;BME280;43423;46.510;6.686;2023-02-03T09:21:15;98141.63;;;6.90;57.08
57594;BME280;43423;46.510;6.686;2023-02-03T09:23:42;98141.19;;;6.91;56.77
57594;BME280;43423;46.510;6.686;2023-02-03T09:26:10;98142.94;;;6.78;56.53
57594;BME280;43423;46.510;6.686;2023-02-03T09:28:36;98140.97;;;6.79;56.04
57594;BME280;43423;46.510;6.686;2023-02-03T09:31:10;98142.41;;;6.60;57.76
57594;BME280;43423;46.510;6.686;2023-02-03T09:33:36;98130.94;;;6.72;57.44
57594;BME280;43423;46.510;6.686;2023-02-03T09:36:02;98136.19;;;7.13;56.14
57594;BME280;43423;46.510;6.686;2023-02-03T09:38:28;98141.69;;;7.37;55.82
57594;BME280;43423;46.510;6.686;2023-02-03T09:43:50;98142.09;;;7.35;56.01
57594;BME280;43423;46.510;6.686;2023-02-03T09:48:52;98140.44;;;7.41;56.20
57594;BME280;43423;46.510;6.686;2023-02-03T09:51:22;98153.06;;;7.59;54.86
57594;BME280;43423;46.510;6.686;2023-02-03T09:54:15;98134.53;;;7.19;56.64
57594;BME280;43423;46.510;6.686;2023-02-03T09:56:42;98146.09;;;7.31;56.61
57594;BME280;43423;46.510;6.686;2023-02-03T09:59:17;98140.91;;;7.36;56.78
57594;BME280;43423;46.510;6.686;2023-02-03T10:04:40;98137.81;;;7.57;56.44
57594;BME280;43423;46.510;6.686;2023-02-03T10:07:18;98120.31;;;7.05;57.28
57594;BME280;43423;46.510;6.686;2023-02-03T10:15:14;98127.13;;;7.43;56.21
57594;BME280;43423;46.510;6.686;2023-02-03T10:17:55;98126.91;;;7.77;56.64
57594;BME280;43423;46.510;6.686;2023-02-03T10:20:49;98129.53;;;7.84;54.88
57594;BME280;43423;46.510;6.686;2023-02-03T10:23:18;98121.94;;;7.92;55.80
57594;BME280;43423;46.510;6.686;2023-02-03T10:25:50;98118.22;;;8.02;55.79
57594;BME280;43423;46.510;6.686;2023-02-03T10:28:21;98123.78;;;7.99;56.55
57594;BME280;43423;46.510;6.686;2023-02-03T10:30:54;98121.53;;;7.94;56.01
57594;BME280;43423;46.510;6.686;2023-02-03T10:33:23;98121.16;;;8.11;55.91
57594;BME280;43423;46.510;6.686;2023-02-03T10:35:54;98120.13;;;8.25;55.31
57594;BME280;43423;46.510;6.686;2023-02-03T10:38:43;98123.00;;;7.98;57.29
57594;BME280;43423;46.510;6.686;2023-02-03T10:41:11;98114.78;;;8.18;58.17
57594;BME280;43423;46.510;6.686;2023-02-03T10:43:37;98122.44;;;8.27;56.35
57594;BME280;43423;46.510;6.686;2023-02-03T10:46:33;98116.28;;;8.43;55.42
57594;BME280;43423;46.510;6.686;2023-02-03T10:48:59;98108.31;;;8.28;55.04
57594;BME280;43423;46.510;6.686;2023-02-03T10:51:27;98110.94;;;8.16;56.90
57594;BME280;43423;46.510;6.686;2023-02-03T10:53:57;98110.78;;;8.23;55.78
57594;BME280;43423;46.510;6.686;2023-02-03T10:56:29;98110.44;;;8.01;57.04
57594;BME280;43423;46.510;6.686;2023-02-03T10:58:57;98098.81;;;8.33;57.63
57594;BME280;43423;46.510;6.686;2023-02-03T11:01:27;98101.38;;;8.24;56.61
57594;BME280;43423;46.510;6.686;2023-02-03T11:04:03;98091.16;;;8.04;57.06
57594;BME280;43423;46.510;6.686;2023-02-03T11:06:31;98084.22;;;8.39;56.62
57594;BME280;43423;46.510;6.686;2023-02-03T11:08:58;98084.78;;;8.31;56.08
57594;BME280;43423;46.510;6.686;2023-02-03T11:11:26;98087.09;;;8.32;55.65
57594;BME280;43423;46.510;6.686;2023-02-03T11:16:26;98092.56;;;8.32;54.76
57594;BME280;43423;46.510;6.686;2023-02-03T11:18:55;98102.50;;;8.46;53.29
57594;BME280;43423;46.510;6.686;2023-02-03T11:21:29;98098.78;;;8.73;52.43
57594;BME280;43423;46.510;6.686;2023-02-03T11:24:01;98098.44;;;8.71;53.98
57594;BME280;43423;46.510;6.686;2023-02-03T11:26:32;98097.75;;;8.83;55.23
57594;BME280;43423;46.510;6.686;2023-02-03T11:29:00;98092.56;;;9.05;54.81
57594;BME280;43423;46.510;6.686;2023-02-03T11:31:47;98093.66;;;9.23;53.55
57594;BME280;43423;46.510;6.686;2023-02-03T11:34:32;98098.28;;;9.59;52.97
57594;BME280;43423;46.510;6.686;2023-02-03T11:39:54;98091.34;;;9.22;51.07
57594;BME280;43423;46.510;6.686;2023-02-03T11:42:21;98097.16;;;8.39;51.70
57594;BME280;43423;46.510;6.686;2023-02-03T11:44:47;98096.75;;;8.93;50.55
57594;BME280;43423;46.510;6.686;2023-02-03T11:47:14;98090.16;;;8.90;49.84
57594;BME280;43423;46.510;6.686;2023-02-03T11:55:15;98075.13;;;9.44;49.77
57594;BME280;43423;46.510;6.686;2023-02-03T11:57:55;98079.59;;;9.83;49.80
57594;BME280;43423;46.510;6.686;2023-02-03T12:00:47;98071.03;;;9.81;49.17
57594;BME280;43423;46.510;6.686;2023-02-03T12:03:39;98064.38;;;9.66;49.56
57594;BME280;43423;46.510;6.686;2023-02-03T12:06:35;98061.75;;;9.75;48.94
57594;BME280;43423;46.510;6.686;2023-02-03T12:09:11;98065.22;;;9.92;48.66
57594;BME280;43423;46.510;6.686;2023-02-03T12:20:14;98043.69;;;10.03;47.14
57594;BME280;43423;46.510;6.686;2023-02-03T12:23:10;98045.53;;;10.22;47.16
57594;BME280;43423;46.510;6.686;2023-02-03T12:29:03;98040.81;;;10.23;47.97
57594;BME280;43423;46.510;6.686;2023-02-03T12:31:41;98035.22;;;10.39;48.02
57594;BME280;43423;46.510;6.686;2023-02-03T12:34:20;98027.88;;;10.61;46.36
57594;BME280;43423;46.510;6.686;2023-02-03T12:36:56;98032.59;;;10.48;44.03
57594;BME280;43423;46.510;6.686;2023-02-03T12:39:35;98020.28;;;10.53;46.31
57594;BME280;43423;46.510;6.686;2023-02-03T12:42:11;98023.13;;;10.49;44.93
57594;BME280;43423;46.510;6.686;2023-02-03T12:44:44;98028.31;;;10.60;43.97
57594;BME280;43423;46.510;6.686;2023-02-03T12:47:17;98033.38;;;10.61;44.20
57594;BME280;43423;46.510;6.686;2023-02-03T12:49:49;98021.03;;;10.79;44.36
57594;BME280;43423;46.510;6.686;2023-02-03T12:52:25;98021.03;;;10.92;44.23
57594;BME280;43423;46.510;6.686;2023-02-03T12:55:02;98004.84;;;10.94;44.79
57594;BME280;43423;46.510;6.686;2023-02-03T12:57:38;98007.91;;;10.96;44.61
57594;BME280;43423;46.510;6.686;2023-02-03T13:05:51;97997.72;;;11.18;44.46
57594;BME280;43423;46.510;6.686;2023-02-03T13:08:35;97991.84;;;11.29;45.06
57594;BME280;43423;46.510;6.686;2023-02-03T13:11:05;97987.78;;;11.33;43.85
57594;BME280;43423;46.510;6.686;2023-02-03T13:13:38;97979.53;;;10.99;45.18
57594;BME280;43423;46.510;6.686;2023-02-03T13:16:07;97981.28;;;10.93;46.69
57594;BME280;43423;46.510;6.686;2023-02-03T13:18:42;97971.03;;;10.93;45.83
57594;BME280;43423;46.510;6.686;2023-02-03T13:21:10;97967.06;;;10.94;45.78
57594;BME280;43423;46.510;6.686;2023-02-03T13:23:43;97966.78;;;10.79;47.25
57594;BME280;43423;46.510;6.686;2023-02-03T13:26:36;97972.34;;;11.01;46.15
57594;BME280;43423;46.510;6.686;2023-02-03T13:29:26;97964.47;;;10.78;48.39
57594;BME280;43423;46.510;6.686;2023-02-03T13:32:16;97966.78;;;10.79;46.79
57594;BME280;43423;46.510;6.686;2023-02-03T13:37:45;97962.22;;;11.77;46.22
57594;BME280;43423;46.510;6.686;2023-02-03T13:42:58;97963.47;;;11.97;45.98
57594;BME280;43423;46.510;6.686;2023-02-03T13:45:46;97963.88;;;11.87;45.13
57594;BME280;43423;46.510;6.686;2023-02-03T13:48:21;97974.91;;;11.52;45.56
57594;BME280;43423;46.510;6.686;2023-02-03T13:50:50;97973.44;;;11.38;45.93
57594;BME280;43423;46.510;6.686;2023-02-03T13:53:26;97964.78;;;10.93;47.52
57594;BME280;43423;46.510;6.686;2023-02-03T13:55:59;97962.72;;;10.71;48.62
57594;BME280;43423;46.510;6.686;2023-02-03T13:58:31;97952.47;;;10.84;49.57
57594;BME280;43423;46.510;6.686;2023-02-03T14:01:01;97934.00;;;10.72;48.86
57594;BME280;43423;46.510;6.686;2023-02-03T14:05:54;97950.72;;;10.65;48.28
57594;BME280;43423;46.510;6.686;2023-02-03T14:16:36;97975.84;;;11.36;45.73
57594;BME280;43423;46.510;6.686;2023-02-03T14:19:03;97973.84;;;11.15;46.59
57594;BME280;43423;46.510;6.686;2023-02-03T14:21:38;97971.97;;;11.12;45.06
57594;BME280;43423;46.510;6.686;2023-02-03T14:24:08;97959.81;;;11.00;45.48
57594;BME280;43423;46.510;6.686;2023-02-03T14:26:45;97964.53;;;11.00;46.30
57594;BME280;43423;46.510;6.686;2023-02-03T14:29:42;97966.59;;;11.08;46.46
57594;BME280;43423;46.510;6.686;2023-02-03T14:32:10;97964.53;;;11.00;47.77
57594;BME280;43423;46.510;6.686;2023-02-03T14:34:36;97964.84;;;11.02;47.26
57594;BME280;43423;46.510;6.686;2023-02-03T14:37:23;97968.16;;;10.97;46.18
57594;BME280;43423;46.510;6.686;2023-02-03T14:51:54;97945.13;;;10.05;51.56